sensor_id;sensor_type;location;lat;lon;timestamp;P1;durP1;ratioP1;P2;durP2;ratioP2
78740;SDS011;68062;48.726;9.370;2023-08-08T00:01:29;3.30;;;2.30;;
78740;SDS011;68062;48.726;9.370;2023-08-08T00:03:56;4.23;;;3.43;;
78740;SDS011;68062;48.726;9.370;2023-08-08T00:06:23;2.77;;;2.57;;
78740;SDS011;68062;48.726;9.370;2023-08-08T00:08:51;4.70;;;3.00;;
78740;SDS011;68062;48.726;9.370;2023-08-08T00:11:17;3.37;;;2.77;;
78740;SDS011;68062;48.726;9.370;2023-08-08T00:13:44;2.33;;;2.00;;
78740;SDS011;68062;48.726;9.370;2023-08-08T00:16:11;2.73;;;2.40;;
78740;SDS011;68062;48.726;9.370;2023-08-08T00:18:38;3.57;;;3.37;;
78740;SDS011;68062;48.726;9.370;2023-08-08T00:21:05;3.50;;;2.60;;
78740;SDS011;68062;48.726;9.370;2023-08-08T00:23:31;3.83;;;2.30;;
78740;SDS011;68062;48.726;9.370;2023-08-08T00:25:59;3.80;;;3.27;;
78740;SDS011;68062;48.726;9.370;2023-08-08T00:28:26;3.70;;;3.10;;
78740;SDS011;68062;48.726;9.370;2023-08-08T00:30:53;7.03;;;4.13;;
78740;SDS011;68062;48.726;9.370;2023-08-08T00:33:20;7.07;;;4.93;;
78740;SDS011;68062;48.726;9.370;2023-08-08T00:35:47;4.60;;;3.80;;
78740;SDS011;68062;48.726;9.370;2023-08-08T00:38:14;6.57;;;2.80;;
78740;SDS011;68062;48.726;9.370;2023-08-08T00:40:42;5.30;;;3.27;;
78740;SDS011;68062;48.726;9.370;2023-08-08T00:43:10;6.60;;;2.73;;
78740;SDS011;68062;48.726;9.370;2023-08-08T00:45:37;4.33;;;2.60;;
78740;SDS011;68062;48.726;9.370;2023-08-08T00:48:04;2.97;;;2.53;;
78740;SDS011;68062;48.726;9.370;2023-08-08T00:50:31;3.03;;;2.40;;
78740;SDS011;68062;48.726;9.370;2023-08-08T00:52:58;3.20;;;2.37;;
78740;SDS011;68062;48.726;9.370;2023-08-08T00:55:25;5.10;;;2.77;;
78740;SDS011;68062;48.726;9.370;2023-08-08T00:57:52;4.53;;;2.20;;
78740;SDS011;68062;48.726;9.370;2023-08-08T01:00:20;2.60;;;1.90;;
78740;SDS011;68062;48.726;9.370;2023-08-08T01:02:47;2.70;;;2.37;;
78740;SDS011;68062;48.726;9.370;2023-08-08T01:05:14;2.30;;;1.83;;
78740;SDS011;68062;48.726;9.370;2023-08-08T01:07:41;3.77;;;2.73;;
78740;SDS011;68062;48.726;9.370;2023-08-08T01:10:20;2.40;;;1.97;;
78740;SDS011;68062;48.726;9.370;2023-08-08T01:12:51;3.80;;;2.30;;
78740;SDS011;68062;48.726;9.370;2023-08-08T01:15:21;6.60;;;2.93;;
78740;SDS011;68062;48.726;9.370;2023-08-08T01:17:50;3.10;;;2.10;;
78740;SDS011;68062;48.726;9.370;2023-08-08T01:20:17;3.40;;;2.17;;
78740;SDS011;68062;48.726;9.370;2023-08-08T01:22:55;3.63;;;2.50;;
78740;SDS011;68062;48.726;9.370;2023-08-08T01:25:27;3.40;;;2.30;;
78740;SDS011;68062;48.726;9.370;2023-08-08T01:27:55;4.93;;;2.63;;
78740;SDS011;68062;48.726;9.370;2023-08-08T01:30:22;3.53;;;1.97;;
78740;SDS011;68062;48.726;9.370;2023-08-08T01:32:48;2.27;;;2.00;;
78740;SDS011;68062;48.726;9.370;2023-08-08T01:35:15;5.47;;;2.20;;
78740;SDS011;68062;48.726;9.370;2023-08-08T01:37:44;2.33;;;2.17;;
78740;SDS011;68062;48.726;9.370;2023-08-08T01:40:15;1.87;;;1.70;;
78740;SDS011;68062;48.726;9.370;2023-08-08T01:42:45;5.30;;;2.90;;
78740;SDS011;68062;48.726;9.370;2023-08-08T01:45:13;1.77;;;1.67;;
78740;SDS011;68062;48.726;9.370;2023-08-08T01:47:41;3.80;;;2.17;;
78740;SDS011;68062;48.726;9.370;2023-08-08T01:50:09;3.17;;;2.20;;
78740;SDS011;68062;48.726;9.370;2023-08-08T01:52:36;3.80;;;2.90;;
78740;SDS011;68062;48.726;9.370;2023-08-08T01:55:03;2.23;;;2.00;;
78740;SDS011;68062;48.726;9.370;2023-08-08T01:57:30;3.03;;;1.90;;
78740;SDS011;68062;48.726;9.370;2023-08-08T01:59:59;2.13;;;1.97;;
78740;SDS011;68062;48.726;9.370;2023-08-08T02:02:27;2.27;;;2.07;;
78740;SDS011;68062;48.726;9.370;2023-08-08T02:04:54;2.27;;;2.10;;
78740;SDS011;68062;48.726;9.370;2023-08-08T02:07:21;5.20;;;2.53;;
78740;SDS011;68062;48.726;9.370;2023-08-08T02:09:47;2.87;;;2.07;;
78740;SDS011;68062;48.726;9.370;2023-08-08T02:12:17;3.30;;;2.67;;
78740;SDS011;68062;48.726;9.370;2023-08-08T02:14:43;2.83;;;2.20;;
78740;SDS011;68062;48.726;9.370;2023-08-08T02:17:11;6.00;;;3.00;;
78740;SDS011;68062;48.726;9.370;2023-08-08T02:19:38;4.03;;;2.30;;
78740;SDS011;68062;48.726;9.370;2023-08-08T02:22:04;5.27;;;2.90;;
78740;SDS011;68062;48.726;9.370;2023-08-08T02:24:31;6.00;;;2.60;;
78740;SDS011;68062;48.726;9.370;2023-08-08T02:26:58;2.50;;;2.30;;
78740;SDS011;68062;48.726;9.370;2023-08-08T02:29:25;2.67;;;2.47;;
78740;SDS011;68062;48.726;9.370;2023-08-08T02:31:51;4.67;;;2.73;;
78740;SDS011;68062;48.726;9.370;2023-08-08T02:34:19;2.27;;;2.10;;
78740;SDS011;68062;48.726;9.370;2023-08-08T02:36:46;2.33;;;1.77;;
78740;SDS011;68062;48.726;9.370;2023-08-08T02:39:13;2.83;;;1.93;;
78740;SDS011;68062;48.726;9.370;2023-08-08T02:41:40;5.10;;;2.43;;
78740;SDS011;68062;48.726;9.370;2023-08-08T02:44:08;2.60;;;2.40;;
78740;SDS011;68062;48.726;9.370;2023-08-08T02:46:34;2.40;;;2.00;;
78740;SDS011;68062;48.726;9.370;2023-08-08T02:49:03;2.63;;;2.03;;
78740;SDS011;68062;48.726;9.370;2023-08-08T02:51:31;2.63;;;2.20;;
78740;SDS011;68062;48.726;9.370;2023-08-08T02:53:58;4.20;;;2.37;;
78740;SDS011;68062;48.726;9.370;2023-08-08T02:56:27;2.37;;;2.07;;
78740;SDS011;68062;48.726;9.370;2023-08-08T02:58:54;2.57;;;2.37;;
78740;SDS011;68062;48.726;9.370;2023-08-08T03:01:21;3.63;;;1.90;;
78740;SDS011;68062;48.726;9.370;2023-08-08T03:03:48;2.90;;;2.40;;
78740;SDS011;68062;48.726;9.370;2023-08-08T03:06:17;2.50;;;2.30;;
78740;SDS011;68062;48.726;9.370;2023-08-08T03:08:45;2.67;;;2.47;;
78740;SDS011;68062;48.726;9.370;2023-08-08T03:11:11;2.50;;;2.00;;
78740;SDS011;68062;48.726;9.370;2023-08-08T03:13:38;3.43;;;2.43;;
78740;SDS011;68062;48.726;9.370;2023-08-08T03:16:05;3.23;;;2.20;;
78740;SDS011;68062;48.726;9.370;2023-08-08T03:18:32;2.47;;;2.27;;
78740;SDS011;68062;48.726;9.370;2023-08-08T03:20:58;3.50;;;2.10;;
78740;SDS011;68062;48.726;9.370;2023-08-08T03:23:28;2.87;;;2.50;;
78740;SDS011;68062;48.726;9.370;2023-08-08T03:25:57;1.97;;;1.90;;
78740;SDS011;68062;48.726;9.370;2023-08-08T03:28:24;4.07;;;2.50;;
78740;SDS011;68062;48.726;9.370;2023-08-08T03:30:54;4.17;;;2.60;;
78740;SDS011;68062;48.726;9.370;2023-08-08T03:33:21;2.43;;;2.00;;
78740;SDS011;68062;48.726;9.370;2023-08-08T03:35:48;3.00;;;2.30;;
78740;SDS011;68062;48.726;9.370;2023-08-08T03:38:16;2.50;;;2.10;;
78740;SDS011;68062;48.726;9.370;2023-08-08T03:40:43;5.60;;;3.97;;
78740;SDS011;68062;48.726;9.370;2023-08-08T03:43:12;4.40;;;3.43;;
78740;SDS011;68062;48.726;9.370;2023-08-08T03:45:39;9.83;;;5.40;;
78740;SDS011;68062;48.726;9.370;2023-08-08T03:48:06;12.97;;;6.00;;
78740;SDS011;68062;48.726;9.370;2023-08-08T03:50:32;6.93;;;4.53;;
78740;SDS011;68062;48.726;9.370;2023-08-08T03:52:59;4.73;;;4.00;;
78740;SDS011;68062;48.726;9.370;2023-08-08T03:55:27;5.00;;;3.20;;
78740;SDS011;68062;48.726;9.370;2023-08-08T03:57:54;4.07;;;2.30;;
78740;SDS011;68062;48.726;9.370;2023-08-08T04:00:22;8.17;;;2.80;;
78740;SDS011;68062;48.726;9.370;2023-08-08T04:02:49;3.80;;;2.50;;
78740;SDS011;68062;48.726;9.370;2023-08-08T04:05:17;4.60;;;3.03;;
78740;SDS011;68062;48.726;9.370;2023-08-08T04:07:44;4.70;;;3.20;;
78740;SDS011;68062;48.726;9.370;2023-08-08T04:10:11;2.83;;;2.50;;
78740;SDS011;68062;48.726;9.370;2023-08-08T04:12:38;4.30;;;3.17;;
78740;SDS011;68062;48.726;9.370;2023-08-08T04:15:05;4.93;;;3.43;;
78740;SDS011;68062;48.726;9.370;2023-08-08T04:17:33;6.43;;;3.30;;
78740;SDS011;68062;48.726;9.370;2023-08-08T04:20:00;6.80;;;3.00;;
78740;SDS011;68062;48.726;9.370;2023-08-08T04:22:31;3.10;;;2.67;;
78740;SDS011;68062;48.726;9.370;2023-08-08T04:24:57;2.80;;;2.20;;
78740;SDS011;68062;48.726;9.370;2023-08-08T04:27:24;3.00;;;2.77;;
78740;SDS011;68062;48.726;9.370;2023-08-08T04:29:51;2.83;;;2.10;;
78740;SDS011;68062;48.726;9.370;2023-08-08T04:32:18;3.00;;;2.13;;
78740;SDS011;68062;48.726;9.370;2023-08-08T04:34:45;2.40;;;2.00;;
78740;SDS011;68062;48.726;9.370;2023-08-08T04:37:12;2.00;;;1.90;;
78740;SDS011;68062;48.726;9.370;2023-08-08T04:39:39;4.00;;;3.57;;
78740;SDS011;68062;48.726;9.370;2023-08-08T04:42:06;2.73;;;2.00;;
78740;SDS011;68062;48.726;9.370;2023-08-08T04:44:32;2.70;;;2.53;;
78740;SDS011;68062;48.726;9.370;2023-08-08T04:46:59;2.63;;;1.70;;
78740;SDS011;68062;48.726;9.370;2023-08-08T04:49:26;2.50;;;2.40;;
78740;SDS011;68062;48.726;9.370;2023-08-08T04:51:55;5.33;;;2.47;;
78740;SDS011;68062;48.726;9.370;2023-08-08T04:54:22;4.90;;;2.93;;
78740;SDS011;68062;48.726;9.370;2023-08-08T04:56:49;4.67;;;2.67;;
78740;SDS011;68062;48.726;9.370;2023-08-08T04:59:15;3.30;;;2.60;;
78740;SDS011;68062;48.726;9.370;2023-08-08T05:01:42;2.57;;;2.37;;
78740;SDS011;68062;48.726;9.370;2023-08-08T05:04:09;3.47;;;2.90;;
78740;SDS011;68062;48.726;9.370;2023-08-08T05:06:35;3.47;;;2.47;;
78740;SDS011;68062;48.726;9.370;2023-08-08T05:09:03;2.93;;;2.33;;
78740;SDS011;68062;48.726;9.370;2023-08-08T05:11:30;2.00;;;1.93;;
78740;SDS011;68062;48.726;9.370;2023-08-08T05:13:56;5.60;;;2.30;;
78740;SDS011;68062;48.726;9.370;2023-08-08T05:16:23;5.83;;;2.20;;
78740;SDS011;68062;48.726;9.370;2023-08-08T05:18:50;2.10;;;2.00;;
78740;SDS011;68062;48.726;9.370;2023-08-08T05:21:17;4.40;;;2.70;;
78740;SDS011;68062;48.726;9.370;2023-08-08T05:23:43;2.50;;;1.87;;
78740;SDS011;68062;48.726;9.370;2023-08-08T05:26:11;3.73;;;2.33;;
78740;SDS011;68062;48.726;9.370;2023-08-08T05:28:38;2.57;;;2.37;;
78740;SDS011;68062;48.726;9.370;2023-08-08T05:31:05;6.63;;;2.20;;
78740;SDS011;68062;48.726;9.370;2023-08-08T05:33:32;3.20;;;2.63;;
78740;SDS011;68062;48.726;9.370;2023-08-08T05:35:59;2.10;;;1.77;;
78740;SDS011;68062;48.726;9.370;2023-08-08T05:38:25;3.03;;;2.57;;
78740;SDS011;68062;48.726;9.370;2023-08-08T05:40:52;2.80;;;2.60;;
78740;SDS011;68062;48.726;9.370;2023-08-08T05:43:20;1.90;;;1.80;;
78740;SDS011;68062;48.726;9.370;2023-08-08T05:45:47;3.97;;;2.30;;
78740;SDS011;68062;48.726;9.370;2023-08-08T05:48:14;1.90;;;1.60;;
78740;SDS011;68062;48.726;9.370;2023-08-08T05:50:41;4.63;;;2.03;;
78740;SDS011;68062;48.726;9.370;2023-08-08T05:53:07;2.90;;;2.20;;
78740;SDS011;68062;48.726;9.370;2023-08-08T05:55:34;2.80;;;2.23;;
78740;SDS011;68062;48.726;9.370;2023-08-08T05:58:01;2.27;;;1.73;;
78740;SDS011;68062;48.726;9.370;2023-08-08T06:00:30;1.90;;;1.70;;
78740;SDS011;68062;48.726;9.370;2023-08-08T06:02:57;2.70;;;1.80;;
78740;SDS011;68062;48.726;9.370;2023-08-08T06:05:24;2.73;;;2.53;;
78740;SDS011;68062;48.726;9.370;2023-08-08T06:07:51;2.60;;;2.10;;
78740;SDS011;68062;48.726;9.370;2023-08-08T06:10:18;2.87;;;2.43;;
78740;SDS011;68062;48.726;9.370;2023-08-08T06:12:44;2.40;;;1.83;;
78740;SDS011;68062;48.726;9.370;2023-08-08T06:15:11;2.53;;;1.93;;
78740;SDS011;68062;48.726;9.370;2023-08-08T06:17:39;7.57;;;4.10;;
78740;SDS011;68062;48.726;9.370;2023-08-08T06:20:07;4.77;;;2.53;;
78740;SDS011;68062;48.726;9.370;2023-08-08T06:22:34;1.37;;;1.37;;
78740;SDS011;68062;48.726;9.370;2023-08-08T06:25:02;3.20;;;1.83;;
78740;SDS011;68062;48.726;9.370;2023-08-08T06:27:29;2.17;;;1.97;;
78740;SDS011;68062;48.726;9.370;2023-08-08T06:29:55;3.53;;;1.83;;
78740;SDS011;68062;48.726;9.370;2023-08-08T06:32:22;5.30;;;1.67;;
78740;SDS011;68062;48.726;9.370;2023-08-08T06:34:50;1.73;;;1.27;;
78740;SDS011;68062;48.726;9.370;2023-08-08T06:37:17;2.10;;;1.10;;
78740;SDS011;68062;48.726;9.370;2023-08-08T06:39:43;1.97;;;1.40;;
78740;SDS011;68062;48.726;9.370;2023-08-08T06:42:11;5.17;;;1.87;;
78740;SDS011;68062;48.726;9.370;2023-08-08T06:44:49;2.60;;;1.57;;
78740;SDS011;68062;48.726;9.370;2023-08-08T06:47:16;2.80;;;1.67;;
78740;SDS011;68062;48.726;9.370;2023-08-08T06:49:43;2.30;;;1.90;;
78740;SDS011;68062;48.726;9.370;2023-08-08T06:52:11;1.80;;;1.63;;
78740;SDS011;68062;48.726;9.370;2023-08-08T06:54:37;2.50;;;1.67;;
78740;SDS011;68062;48.726;9.370;2023-08-08T06:57:05;6.03;;;1.70;;
78740;SDS011;68062;48.726;9.370;2023-08-08T06:59:32;2.33;;;1.50;;
78740;SDS011;68062;48.726;9.370;2023-08-08T07:01:59;2.10;;;1.53;;
78740;SDS011;68062;48.726;9.370;2023-08-08T07:04:26;2.50;;;1.63;;
78740;SDS011;68062;48.726;9.370;2023-08-08T07:06:53;3.50;;;1.73;;
78740;SDS011;68062;48.726;9.370;2023-08-08T07:09:21;1.57;;;1.53;;
78740;SDS011;68062;48.726;9.370;2023-08-08T07:11:48;1.73;;;1.60;;
78740;SDS011;68062;48.726;9.370;2023-08-08T07:14:15;4.00;;;1.73;;
78740;SDS011;68062;48.726;9.370;2023-08-08T07:16:41;2.93;;;1.50;;
78740;SDS011;68062;48.726;9.370;2023-08-08T07:19:08;2.77;;;1.43;;
78740;SDS011;68062;48.726;9.370;2023-08-08T07:21:37;4.70;;;1.70;;
78740;SDS011;68062;48.726;9.370;2023-08-08T07:24:04;1.80;;;1.50;;
78740;SDS011;68062;48.726;9.370;2023-08-08T07:26:32;2.23;;;2.10;;
78740;SDS011;68062;48.726;9.370;2023-08-08T07:28:59;2.90;;;1.40;;
78740;SDS011;68062;48.726;9.370;2023-08-08T07:31:25;1.57;;;1.47;;
78740;SDS011;68062;48.726;9.370;2023-08-08T07:33:52;1.37;;;1.30;;
78740;SDS011;68062;48.726;9.370;2023-08-08T07:36:19;1.40;;;1.33;;
78740;SDS011;68062;48.726;9.370;2023-08-08T07:38:46;1.40;;;1.30;;
78740;SDS011;68062;48.726;9.370;2023-08-08T07:41:12;3.70;;;1.40;;
78740;SDS011;68062;48.726;9.370;2023-08-08T07:43:40;1.30;;;1.23;;
78740;SDS011;68062;48.726;9.370;2023-08-08T07:46:07;1.90;;;1.80;;
78740;SDS011;68062;48.726;9.370;2023-08-08T07:48:33;2.03;;;1.63;;
78740;SDS011;68062;48.726;9.370;2023-08-08T07:51:00;3.10;;;1.93;;
78740;SDS011;68062;48.726;9.370;2023-08-08T07:53:28;1.63;;;1.47;;
78740;SDS011;68062;48.726;9.370;2023-08-08T07:55:55;1.93;;;1.53;;
78740;SDS011;68062;48.726;9.370;2023-08-08T07:58:22;2.10;;;1.67;;
78740;SDS011;68062;48.726;9.370;2023-08-08T08:00:52;4.00;;;2.13;;
78740;SDS011;68062;48.726;9.370;2023-08-08T08:03:19;2.30;;;2.10;;
78740;SDS011;68062;48.726;9.370;2023-08-08T08:05:46;1.83;;;1.60;;
78740;SDS011;68062;48.726;9.370;2023-08-08T08:08:13;2.70;;;1.80;;
78740;SDS011;68062;48.726;9.370;2023-08-08T08:10:40;1.93;;;1.30;;
78740;SDS011;68062;48.726;9.370;2023-08-08T08:13:07;2.33;;;1.77;;
78740;SDS011;68062;48.726;9.370;2023-08-08T08:15:36;2.60;;;1.53;;
78740;SDS011;68062;48.726;9.370;2023-08-08T08:18:04;2.30;;;1.43;;
78740;SDS011;68062;48.726;9.370;2023-08-08T08:20:31;3.40;;;1.93;;
78740;SDS011;68062;48.726;9.370;2023-08-08T08:22:58;2.60;;;1.60;;
78740;SDS011;68062;48.726;9.370;2023-08-08T08:25:24;2.60;;;1.57;;
78740;SDS011;68062;48.726;9.370;2023-08-08T08:27:51;1.47;;;1.27;;
78740;SDS011;68062;48.726;9.370;2023-08-08T08:30:18;3.80;;;1.73;;
78740;SDS011;68062;48.726;9.370;2023-08-08T08:32:45;5.03;;;1.60;;
78740;SDS011;68062;48.726;9.370;2023-08-08T08:35:13;1.47;;;1.40;;
78740;SDS011;68062;48.726;9.370;2023-08-08T08:37:41;1.90;;;1.30;;
78740;SDS011;68062;48.726;9.370;2023-08-08T08:40:09;2.43;;;1.50;;
78740;SDS011;68062;48.726;9.370;2023-08-08T08:42:36;2.57;;;1.53;;
78740;SDS011;68062;48.726;9.370;2023-08-08T08:45:05;2.20;;;1.53;;
78740;SDS011;68062;48.726;9.370;2023-08-08T08:47:35;2.07;;;1.40;;
78740;SDS011;68062;48.726;9.370;2023-08-08T08:50:03;1.83;;;1.70;;
78740;SDS011;68062;48.726;9.370;2023-08-08T08:52:32;2.27;;;1.70;;
78740;SDS011;68062;48.726;9.370;2023-08-08T08:54:59;2.40;;;1.77;;
78740;SDS011;68062;48.726;9.370;2023-08-08T08:57:26;3.37;;;1.43;;
78740;SDS011;68062;48.726;9.370;2023-08-08T08:59:55;2.87;;;1.87;;
78740;SDS011;68062;48.726;9.370;2023-08-08T09:02:22;1.87;;;1.23;;
78740;SDS011;68062;48.726;9.370;2023-08-08T09:04:50;2.13;;;1.60;;
78740;SDS011;68062;48.726;9.370;2023-08-08T09:07:19;3.53;;;1.77;;
78740;SDS011;68062;48.726;9.370;2023-08-08T09:09:52;2.60;;;1.50;;
78740;SDS011;68062;48.726;9.370;2023-08-08T09:12:19;2.00;;;1.43;;
78740;SDS011;68062;48.726;9.370;2023-08-08T09:14:45;4.30;;;1.90;;
78740;SDS011;68062;48.726;9.370;2023-08-08T09:17:14;2.10;;;1.40;;
78740;SDS011;68062;48.726;9.370;2023-08-08T09:19:42;1.50;;;1.40;;
78740;SDS011;68062;48.726;9.370;2023-08-08T09:22:09;1.50;;;1.47;;
78740;SDS011;68062;48.726;9.370;2023-08-08T09:24:37;1.87;;;1.80;;
78740;SDS011;68062;48.726;9.370;2023-08-08T09:27:06;3.00;;;1.50;;
78740;SDS011;68062;48.726;9.370;2023-08-08T09:29:33;3.57;;;1.90;;
78740;SDS011;68062;48.726;9.370;2023-08-08T09:32:02;2.13;;;1.50;;
78740;SDS011;68062;48.726;9.370;2023-08-08T09:34:29;1.80;;;1.70;;
78740;SDS011;68062;48.726;9.370;2023-08-08T09:36:56;1.57;;;1.50;;
78740;SDS011;68062;48.726;9.370;2023-08-08T09:39:23;3.40;;;1.80;;
78740;SDS011;68062;48.726;9.370;2023-08-08T09:41:50;3.80;;;1.60;;
78740;SDS011;68062;48.726;9.370;2023-08-08T09:44:22;2.33;;;1.33;;
78740;SDS011;68062;48.726;9.370;2023-08-08T09:46:49;1.67;;;1.47;;
78740;SDS011;68062;48.726;9.370;2023-08-08T09:49:16;2.17;;;1.70;;
78740;SDS011;68062;48.726;9.370;2023-08-08T09:51:44;1.80;;;1.33;;
78740;SDS011;68062;48.726;9.370;2023-08-08T09:54:12;2.60;;;2.00;;
78740;SDS011;68062;48.726;9.370;2023-08-08T09:56:40;1.97;;;1.47;;
78740;SDS011;68062;48.726;9.370;2023-08-08T09:59:07;2.10;;;1.47;;
78740;SDS011;68062;48.726;9.370;2023-08-08T10:01:37;2.10;;;1.40;;
78740;SDS011;68062;48.726;9.370;2023-08-08T10:04:06;2.17;;;1.40;;
78740;SDS011;68062;48.726;9.370;2023-08-08T10:06:33;1.43;;;1.20;;
78740;SDS011;68062;48.726;9.370;2023-08-08T10:09:01;2.20;;;1.40;;
78740;SDS011;68062;48.726;9.370;2023-08-08T10:11:29;1.93;;;1.60;;
78740;SDS011;68062;48.726;9.370;2023-08-08T10:13:57;2.33;;;1.40;;
78740;SDS011;68062;48.726;9.370;2023-08-08T10:16:25;2.40;;;1.60;;
78740;SDS011;68062;48.726;9.370;2023-08-08T10:18:56;2.20;;;1.83;;
78740;SDS011;68062;48.726;9.370;2023-08-08T10:21:24;3.10;;;1.33;;
78740;SDS011;68062;48.726;9.370;2023-08-08T10:24:00;2.47;;;1.40;;
78740;SDS011;68062;48.726;9.370;2023-08-08T10:26:28;2.13;;;1.60;;
78740;SDS011;68062;48.726;9.370;2023-08-08T10:28:55;1.17;;;1.13;;
78740;SDS011;68062;48.726;9.370;2023-08-08T10:31:23;2.30;;;1.50;;
78740;SDS011;68062;48.726;9.370;2023-08-08T10:33:59;1.77;;;1.50;;
78740;SDS011;68062;48.726;9.370;2023-08-08T10:36:43;2.83;;;1.63;;
78740;SDS011;68062;48.726;9.370;2023-08-08T10:39:14;1.43;;;1.40;;
78740;SDS011;68062;48.726;9.370;2023-08-08T10:41:44;2.50;;;1.30;;
78740;SDS011;68062;48.726;9.370;2023-08-08T10:44:12;1.87;;;1.77;;
78740;SDS011;68062;48.726;9.370;2023-08-08T10:46:40;2.70;;;1.60;;
78740;SDS011;68062;48.726;9.370;2023-08-08T10:49:10;2.10;;;1.27;;
78740;SDS011;68062;48.726;9.370;2023-08-08T10:51:40;1.43;;;1.40;;
78740;SDS011;68062;48.726;9.370;2023-08-08T10:54:12;2.03;;;1.53;;
78740;SDS011;68062;48.726;9.370;2023-08-08T10:56:47;1.60;;;1.50;;
78740;SDS011;68062;48.726;9.370;2023-08-08T10:59:14;3.30;;;1.60;;
78740;SDS011;68062;48.726;9.370;2023-08-08T11:01:44;1.80;;;1.40;;
78740;SDS011;68062;48.726;9.370;2023-08-08T11:04:13;3.13;;;1.70;;
78740;SDS011;68062;48.726;9.370;2023-08-08T11:06:41;2.40;;;1.50;;
78740;SDS011;68062;48.726;9.370;2023-08-08T11:09:08;2.10;;;1.30;;
78740;SDS011;68062;48.726;9.370;2023-08-08T11:11:36;3.53;;;1.70;;
78740;SDS011;68062;48.726;9.370;2023-08-08T11:14:08;1.40;;;1.40;;
78740;SDS011;68062;48.726;9.370;2023-08-08T11:16:36;2.50;;;1.40;;
78740;SDS011;68062;48.726;9.370;2023-08-08T11:19:03;2.13;;;1.30;;
78740;SDS011;68062;48.726;9.370;2023-08-08T11:21:34;1.40;;;1.30;;
78740;SDS011;68062;48.726;9.370;2023-08-08T11:24:02;1.67;;;1.43;;
78740;SDS011;68062;48.726;9.370;2023-08-08T11:26:30;1.30;;;1.23;;
78740;SDS011;68062;48.726;9.370;2023-08-08T11:28:58;1.67;;;1.50;;
78740;SDS011;68062;48.726;9.370;2023-08-08T11:31:25;1.40;;;1.30;;
78740;SDS011;68062;48.726;9.370;2023-08-08T11:33:52;1.43;;;1.33;;
78740;SDS011;68062;48.726;9.370;2023-08-08T11:36:20;1.87;;;1.80;;
78740;SDS011;68062;48.726;9.370;2023-08-08T11:38:50;1.90;;;1.73;;
78740;SDS011;68062;48.726;9.370;2023-08-08T11:41:19;1.77;;;1.40;;
78740;SDS011;68062;48.726;9.370;2023-08-08T11:43:49;5.80;;;1.90;;
78740;SDS011;68062;48.726;9.370;2023-08-08T11:46:17;1.60;;;1.27;;
78740;SDS011;68062;48.726;9.370;2023-08-08T11:48:46;3.20;;;1.80;;
78740;SDS011;68062;48.726;9.370;2023-08-08T11:51:13;2.60;;;1.50;;
78740;SDS011;68062;48.726;9.370;2023-08-08T11:53:47;2.37;;;1.40;;
78740;SDS011;68062;48.726;9.370;2023-08-08T11:56:17;3.97;;;1.40;;
78740;SDS011;68062;48.726;9.370;2023-08-08T11:58:45;1.93;;;1.37;;
78740;SDS011;68062;48.726;9.370;2023-08-08T12:01:12;1.97;;;1.40;;
78740;SDS011;68062;48.726;9.370;2023-08-08T12:03:40;1.83;;;1.10;;
78740;SDS011;68062;48.726;9.370;2023-08-08T12:06:13;2.30;;;1.20;;
78740;SDS011;68062;48.726;9.370;2023-08-08T12:08:41;1.93;;;1.43;;
78740;SDS011;68062;48.726;9.370;2023-08-08T12:11:10;2.13;;;1.90;;
78740;SDS011;68062;48.726;9.370;2023-08-08T12:13:38;2.70;;;1.43;;
78740;SDS011;68062;48.726;9.370;2023-08-08T12:16:06;1.90;;;1.23;;
78740;SDS011;68062;48.726;9.370;2023-08-08T12:18:35;2.27;;;1.60;;
78740;SDS011;68062;48.726;9.370;2023-08-08T12:21:03;3.17;;;1.37;;
78740;SDS011;68062;48.726;9.370;2023-08-08T12:23:29;1.30;;;1.23;;
78740;SDS011;68062;48.726;9.370;2023-08-08T12:25:57;2.17;;;1.27;;
78740;SDS011;68062;48.726;9.370;2023-08-08T12:28:25;2.17;;;1.47;;
78740;SDS011;68062;48.726;9.370;2023-08-08T12:30:52;1.30;;;1.10;;
78740;SDS011;68062;48.726;9.370;2023-08-08T12:33:19;2.30;;;1.40;;
78740;SDS011;68062;48.726;9.370;2023-08-08T12:35:46;2.40;;;1.60;;
78740;SDS011;68062;48.726;9.370;2023-08-08T12:38:13;1.73;;;1.50;;
78740;SDS011;68062;48.726;9.370;2023-08-08T12:40:40;1.80;;;1.37;;
78740;SDS011;68062;48.726;9.370;2023-08-08T12:43:07;1.50;;;1.40;;
78740;SDS011;68062;48.726;9.370;2023-08-08T12:45:36;5.97;;;1.60;;
78740;SDS011;68062;48.726;9.370;2023-08-08T12:48:03;1.53;;;1.23;;
78740;SDS011;68062;48.726;9.370;2023-08-08T12:50:31;1.80;;;1.23;;
78740;SDS011;68062;48.726;9.370;2023-08-08T12:52:58;2.77;;;1.37;;
78740;SDS011;68062;48.726;9.370;2023-08-08T12:55:27;1.87;;;1.20;;
78740;SDS011;68062;48.726;9.370;2023-08-08T12:57:54;1.57;;;1.17;;
78740;SDS011;68062;48.726;9.370;2023-08-08T13:00:20;2.30;;;1.40;;
78740;SDS011;68062;48.726;9.370;2023-08-08T13:02:50;1.40;;;1.20;;
78740;SDS011;68062;48.726;9.370;2023-08-08T13:05:17;1.73;;;1.63;;
78740;SDS011;68062;48.726;9.370;2023-08-08T13:07:44;1.90;;;1.53;;
78740;SDS011;68062;48.726;9.370;2023-08-08T13:10:11;2.10;;;1.47;;
78740;SDS011;68062;48.726;9.370;2023-08-08T13:12:37;1.60;;;1.50;;
78740;SDS011;68062;48.726;9.370;2023-08-08T13:15:04;2.20;;;1.40;;
78740;SDS011;68062;48.726;9.370;2023-08-08T13:17:34;2.00;;;1.43;;
78740;SDS011;68062;48.726;9.370;2023-08-08T13:20:02;2.60;;;1.50;;
78740;SDS011;68062;48.726;9.370;2023-08-08T13:22:30;1.30;;;1.20;;
78740;SDS011;68062;48.726;9.370;2023-08-08T13:24:56;1.40;;;1.33;;
78740;SDS011;68062;48.726;9.370;2023-08-08T13:27:23;1.60;;;1.20;;
78740;SDS011;68062;48.726;9.370;2023-08-08T13:29:50;1.90;;;1.80;;
78740;SDS011;68062;48.726;9.370;2023-08-08T13:32:17;4.07;;;1.70;;
78740;SDS011;68062;48.726;9.370;2023-08-08T13:34:44;2.10;;;1.17;;
78740;SDS011;68062;48.726;9.370;2023-08-08T13:37:12;1.50;;;1.40;;
78740;SDS011;68062;48.726;9.370;2023-08-08T13:39:39;2.03;;;1.50;;
78740;SDS011;68062;48.726;9.370;2023-08-08T13:42:05;2.40;;;1.47;;
78740;SDS011;68062;48.726;9.370;2023-08-08T13:44:34;1.93;;;1.50;;
78740;SDS011;68062;48.726;9.370;2023-08-08T13:47:01;1.33;;;1.13;;
78740;SDS011;68062;48.726;9.370;2023-08-08T13:49:27;1.57;;;1.40;;
78740;SDS011;68062;48.726;9.370;2023-08-08T13:51:54;3.27;;;1.77;;
78740;SDS011;68062;48.726;9.370;2023-08-08T13:54:22;1.87;;;1.30;;
78740;SDS011;68062;48.726;9.370;2023-08-08T13:56:49;2.37;;;1.73;;
78740;SDS011;68062;48.726;9.370;2023-08-08T13:59:16;2.43;;;1.97;;
78740;SDS011;68062;48.726;9.370;2023-08-08T14:01:42;2.40;;;1.50;;
78740;SDS011;68062;48.726;9.370;2023-08-08T14:04:09;1.30;;;1.17;;
78740;SDS011;68062;48.726;9.370;2023-08-08T14:06:36;1.80;;;1.53;;
78740;SDS011;68062;48.726;9.370;2023-08-08T14:09:02;1.90;;;1.37;;
78740;SDS011;68062;48.726;9.370;2023-08-08T14:11:32;1.50;;;1.40;;
78740;SDS011;68062;48.726;9.370;2023-08-08T14:13:59;2.50;;;1.80;;
78740;SDS011;68062;48.726;9.370;2023-08-08T14:16:25;1.43;;;1.30;;
78740;SDS011;68062;48.726;9.370;2023-08-08T14:18:52;3.13;;;1.53;;
78740;SDS011;68062;48.726;9.370;2023-08-08T14:21:19;2.97;;;1.80;;
78740;SDS011;68062;48.726;9.370;2023-08-08T14:23:45;2.97;;;1.53;;
78740;SDS011;68062;48.726;9.370;2023-08-08T14:26:12;1.63;;;1.53;;
78740;SDS011;68062;48.726;9.370;2023-08-08T14:28:40;1.50;;;1.30;;
78740;SDS011;68062;48.726;9.370;2023-08-08T14:31:07;2.50;;;1.80;;
78740;SDS011;68062;48.726;9.370;2023-08-08T14:33:34;2.83;;;1.40;;
78740;SDS011;68062;48.726;9.370;2023-08-08T14:36:00;1.63;;;1.47;;
78740;SDS011;68062;48.726;9.370;2023-08-08T14:38:27;1.80;;;1.20;;
78740;SDS011;68062;48.726;9.370;2023-08-08T14:40:54;2.10;;;1.97;;
78740;SDS011;68062;48.726;9.370;2023-08-08T14:43:22;2.57;;;1.70;;
78740;SDS011;68062;48.726;9.370;2023-08-08T14:45:50;1.57;;;1.47;;
78740;SDS011;68062;48.726;9.370;2023-08-08T14:48:17;2.00;;;1.80;;
78740;SDS011;68062;48.726;9.370;2023-08-08T14:50:44;2.43;;;1.73;;